Two Rivers, Wisconsin
Current Conditions -  °F | °C
As of 7:56 PM on Friday 21 Nov 2014 (Local Time) from KMTW Reporting Station
Clear Clear  
Wind Chill: 18°   Ceiling: Unl
Heat Index: 30°   Visibility: 10mi
Dew Point:   Wind: 18mph
Humidity: 38%   Direction: 200°SSW
Pressure: 30.17"   Gusts: 24mph
Location:  44.15°N, 87.57°W
Report Text: KMTW 220156Z AUTO 20016G21KT 10SM CLR M01/M14 A3017 RMK AO2 SLP240 T10111139 FZRANO
Loading
Personal Weather Stations






























Interactive Weather Map New forecast layout! Learn more

10-Day Weather Forecast

Advertisements
Track Severe Weather on mobile